Hovedside
METAR-TAF:

METAR-TAF

Lufthavner :

Mo i Rana, Norge

Mo i Rana lufthavn

breddegrad: 66-22N, lengdegrad: 014-18E, høyde over havet: 7 m

Gjeldene værobservasjon

Denne rapporten ble laget for 51 minutter siden, klokken 21:50 UTC
Vind 4 kt fra Sørøst
Temperatur 12°C
Luftfuktighet 82%
Trykk 1018 hPa
Sikt 10 km eller mer
ingen skyer under 1500 m og ingen bygeskyer

METAR: ENRA 242150Z 14004KT CAVOK 12/09 Q1018

Tid: 00:41 (22:41 UTC)

Varsel

Denne rapporten ble laget for 5 timer og 41 minutter siden, klokken 17:00 UTC
Varsel gyldig fra 24. klokken 18 UTC til 24. klokken 22 UTC
Vind 8 kt fra Øst-nordøst
Sikt 10 km eller mer
ingen skyer under 1500 m og ingen bygeskyer

TAF: ENRA 241700Z 2418/2422 07008KT CAVOK

Værobservasjoner og værvarsel for over 4000 flyplasser (METAR- og TAF-rapporter).

Tilgjengelige stasjoner er representert av de røde og gule prikkene på kartet.

Hold musepekeren over prikken for å se navnet på stasjonen.

Klikk så for å se værobservasjoner og -varsler.

For å forandre kartet kan du klikke på den grønne knappen med svart kryss for å zoome inn, på den grønne knappen med strek for å zoome ut, eller på de grønne pilene for å se tilstøtende kart.


METAR-TAF: